Bradley International Airport
KBDL : now visible

Airfield :











YOU CAN JOIN US ON...

 
LOGIN :

Register | Disclaimer

   EN    FR    IT 

 









Legend :    VFR   Marginal VFR   IFR   Intensive IFR   Very Intensive IFR
Visi :
Ceiling :
>= 8 km
>= 3000ft
5 to 8 km
1000 to 3000 ft
1500m to 5 km
500 to 1000 ft
800 to 1500m
200 to 500 ft
< 800m
< 200 ft
Symbols :   Thunderstorms  Fog  Heavy snow  Heavy precipitations  Wind > 20 kt






- Airport Elevation : 173 ft
- IATA code : BDL


KBDL - Bradley International

CURRENT METAR :
  • 180551Z 22010KT 10SM OVC065 04/M04 A2963 RMK AO2 SLP036 T00391039 10044 20033 55000

EXPIRED METARs :
  • 180451Z 22013KT 10SM FEW060 BKN070 BKN140 04/M04 A2963 RMK AO2 SLP034 T00391039 400610000
  • 180351Z 23009KT 10SM BKN060 04/M03 A2963 RMK AO2 SLP035 T00391033

TAF KBDL
Valid from the 18 at 06:00 until the 19 at 12:00 UTC


180526Z 1806/1912 22013KT P6SM BKN070
FM181600 24007KT P6SM BKN080
FM181800 25009KT P6SM BKN045
FM182000 28010G17KT P6SM VCSH BKN040
FM182300 30009KT P6SM BKN070
FM190700 29005KT P6SM FEW120
KZBW FIR / North America



MET'MAP, your aeronautical weather chart ! - Copyright ORBIFLY December 2007 - Disclaimer

ORBIFLY MET'MAP TEAM :

Programming & Development : Alexandra Zaïnal
Concept & original design : Baudouin d'Aumeries
Assistance for programming : Marc-Olivier Méhu
Technical & hardware support : Manuel Goepfert

Contact : metmap@orbifly.com




SOURCES & CREDITS :

   NOAA       Earth
Advisory